createdAt,value
2019-04-11T00:03:39.644Z,13.57
2019-04-11T00:08:41.907Z,13.53
2019-04-11T00:13:43.174Z,13.49
2019-04-11T00:18:44.934Z,13.45
2019-04-11T00:23:46.117Z,13.47
2019-04-11T00:28:47.957Z,13.53
2019-04-11T00:33:49.393Z,13.43
2019-04-11T00:38:50.696Z,13.38
2019-04-11T00:43:52.765Z,13.25
2019-04-11T00:48:54.475Z,13.25
2019-04-11T00:53:55.440Z,13.17
2019-04-11T00:58:56.741Z,13.33
2019-04-11T01:03:59.109Z,13.20
2019-04-11T01:09:00.013Z,13.10
2019-04-11T01:14:01.572Z,13.06
2019-04-11T01:19:02.622Z,12.90
2019-04-11T01:24:03.792Z,12.77
2019-04-11T01:29:04.999Z,12.75
2019-04-11T01:34:06.496Z,12.52
2019-04-11T01:39:13.816Z,12.37
2019-04-11T01:44:15.139Z,12.37
2019-04-11T01:49:17.318Z,12.59
2019-04-11T01:54:19.549Z,12.27
2019-04-11T01:59:19.989Z,12.09
2019-04-11T02:04:23.774Z,12.14
2019-04-11T02:09:24.671Z,11.95
2019-04-11T02:14:25.984Z,12.01
2019-04-11T02:19:28.102Z,11.96
2019-04-11T02:24:36.611Z,11.96
2019-04-11T02:29:37.916Z,11.81
2019-04-11T02:34:40.287Z,11.91
2019-04-11T02:39:42.711Z,11.74
2019-04-11T02:44:59.590Z,11.78
2019-04-11T02:49:45.657Z,11.76
2019-04-11T02:54:47.386Z,11.60
2019-04-11T02:59:49.041Z,11.62
2019-04-11T03:04:50.968Z,11.42
2019-04-11T03:09:51.080Z,11.41
2019-04-11T03:15:09.317Z,11.35
2019-04-11T03:20:08.924Z,11.45
2019-04-11T03:24:55.660Z,11.32
2019-04-11T03:29:58.098Z,11.55
2019-04-11T03:35:51.011Z,11.69
2019-04-11T03:40:23.809Z,11.63
2019-04-11T03:45:20.994Z,11.67
2019-04-11T03:50:08.531Z,11.25
2019-04-11T03:55:06.737Z,10.81
2019-04-11T04:00:06.327Z,10.84
2019-04-11T04:05:08.875Z,10.82
2019-04-11T04:10:12.615Z,11.17
2019-04-11T04:15:32.562Z,10.60
2019-04-11T04:25:49.349Z,10.81
2019-04-11T04:30:51.670Z,11.16
2019-04-11T04:35:52.358Z,11.20
2019-04-11T04:41:07.334Z,11.27
2019-04-11T04:46:13.549Z,11.33
2019-04-11T04:51:01.646Z,11.27
2019-04-11T04:56:00.289Z,11.36
2019-04-11T05:01:01.387Z,11.31
2019-04-11T05:06:03.369Z,11.33
2019-04-11T05:11:04.503Z,11.29
2019-04-11T05:16:16.414Z,11.24
2019-04-11T05:21:06.065Z,11.01
2019-04-11T05:26:07.455Z,10.24
2019-04-11T05:31:10.095Z,10.73
2019-04-11T05:36:10.245Z,10.78
2019-04-11T05:41:13.498Z,10.67
2019-04-11T05:46:28.587Z,10.98
2019-04-11T05:51:18.565Z,10.63
2019-04-11T05:56:16.856Z,10.83
2019-04-11T06:01:20.283Z,10.82
2019-04-11T06:06:24.686Z,10.66
2019-04-11T06:11:34.825Z,10.59
2019-04-11T06:16:44.887Z,10.62
2019-04-11T06:21:44.284Z,10.60
2019-04-11T06:26:49.131Z,10.48
2019-04-11T06:31:52.701Z,10.34
2019-04-11T06:36:58.109Z,10.50
2019-04-11T06:42:04.205Z,10.32
2019-04-11T06:47:18.808Z,10.61
2019-04-11T06:52:24.413Z,10.58
2019-04-11T06:57:26.696Z,10.36
2019-04-11T07:02:28.052Z,10.44
2019-04-11T07:07:34.325Z,10.46
2019-04-11T07:12:38.630Z,10.39
2019-04-11T07:17:48.111Z,10.26
2019-04-11T07:22:57.521Z,10.53
2019-04-11T07:28:05.939Z,10.48
2019-04-11T07:33:16.517Z,10.37
2019-04-11T07:38:23.449Z,10.46
2019-04-11T07:43:24.993Z,10.40
2019-04-11T07:48:27.231Z,10.36
2019-04-11T07:53:28.559Z,10.42
2019-04-11T07:58:31.370Z,10.49
2019-04-11T08:03:40.021Z,10.39
2019-04-11T08:08:51.395Z,10.58
2019-04-11T08:14:08.403Z,10.56
2019-04-11T08:24:50.972Z,10.37
2019-04-11T08:29:52.010Z,10.64
2019-04-11T08:34:55.843Z,10.69
2019-04-11T08:39:59.678Z,10.60
2019-04-11T08:45:02.352Z,10.78
2019-04-11T08:50:07.499Z,10.63
2019-04-11T08:55:10.343Z,10.98
2019-04-11T09:00:37.987Z,11.25
2019-04-11T09:05:53.312Z,11.37
2019-04-11T09:10:53.610Z,11.44
2019-04-11T09:16:02.133Z,11.56
2019-04-11T09:21:11.866Z,11.66
2019-04-11T09:31:45.770Z,11.82
2019-04-11T09:37:03.170Z,12.03
2019-04-11T09:47:40.567Z,12.79
2019-04-11T09:52:42.869Z,12.74
2019-04-11T09:57:48.404Z,12.83
2019-04-11T10:02:53.078Z,12.59
2019-04-11T10:08:02.277Z,12.79
2019-04-11T10:13:25.022Z,12.97
2019-04-11T10:18:37.278Z,12.44
2019-04-11T10:23:34.926Z,12.60
2019-04-11T10:28:49.665Z,13.16
2019-04-11T10:34:04.877Z,13.67
2019-04-11T10:39:29.298Z,13.79
2019-04-11T10:44:40.362Z,13.23
2019-04-11T10:49:46.401Z,13.58
2019-04-11T10:54:57.573Z,13.90
2019-04-11T11:05:47.161Z,13.47
2019-04-11T11:10:47.970Z,14.26
2019-04-11T11:15:49.802Z,14.11
2019-04-11T11:20:55.145Z,14.20
2019-04-11T11:31:32.034Z,13.99
2019-04-11T11:36:39.584Z,14.84
2019-04-11T11:41:48.869Z,15.12
2019-04-11T11:47:06.850Z,15.14
2019-04-11T11:52:22.852Z,15.10
2019-04-11T11:57:24.242Z,15.84
2019-04-11T12:02:26.380Z,16.20
2019-04-11T12:07:28.559Z,16.40
2019-04-11T12:12:42.763Z,16.00
2019-04-11T12:17:50.348Z,15.93
2019-04-11T12:22:53.691Z,15.23
2019-04-11T12:33:35.266Z,15.33
2019-04-11T12:38:54.663Z,14.96
2019-04-11T12:43:59.021Z,15.50
2019-04-11T12:54:32.737Z,16.09
2019-04-11T12:59:36.618Z,16.17
2019-04-11T13:04:38.010Z,16.01
2019-04-11T13:09:43.850Z,15.89
2019-04-11T13:20:19.890Z,16.39
2019-04-11T13:30:57.804Z,16.42
2019-04-11T13:36:02.409Z,16.17
2019-04-11T13:41:20.297Z,16.01
2019-04-11T13:51:48.495Z,15.55
2019-04-11T13:56:54.803Z,15.59
2019-04-11T14:07:33.977Z,15.48
2019-04-11T14:12:44.087Z,15.43
2019-04-11T14:17:48.404Z,15.59
2019-04-11T14:22:52.582Z,15.42
2019-04-11T14:27:59.940Z,15.74
2019-04-11T14:33:01.393Z,15.76
2019-04-11T14:38:04.639Z,15.72
2019-04-11T14:43:09.893Z,15.78
2019-04-11T14:54:04.163Z,15.51
2019-04-11T14:59:10.571Z,15.66
2019-04-11T15:04:18.040Z,15.46
2019-04-11T15:09:22.745Z,15.16
2019-04-11T15:14:27.964Z,15.46
2019-04-11T15:19:29.296Z,16.06
2019-04-11T15:24:31.387Z,16.51
2019-04-11T15:29:33.578Z,15.95
2019-04-11T15:34:37.938Z,15.93
2019-04-11T15:39:45.538Z,15.64
2019-04-11T15:44:53.120Z,15.47
2019-04-11T15:50:08.649Z,15.51
2019-04-11T15:55:16.242Z,15.37
2019-04-11T16:00:20.624Z,15.38
2019-04-11T16:11:14.317Z,14.82
2019-04-11T16:16:30.587Z,15.00
2019-04-11T16:21:35.681Z,14.95
2019-04-11T16:26:43.316Z,15.14
2019-04-11T16:31:45.414Z,15.28
2019-04-11T16:36:50.433Z,15.26
2019-04-11T16:42:02.744Z,15.13
2019-04-11T16:47:08.282Z,15.23
2019-04-11T16:52:15.904Z,14.94
2019-04-11T16:57:24.664Z,14.96
2019-04-11T17:02:28.905Z,14.74
2019-04-11T17:12:59.912Z,14.86
2019-04-11T17:18:03.159Z,14.79
2019-04-11T17:23:04.340Z,14.55
2019-04-11T17:28:05.738Z,14.68
2019-04-11T17:33:07.947Z,14.49
2019-04-11T17:38:15.688Z,14.51
2019-04-11T17:43:17.080Z,14.25
2019-04-11T17:48:19.528Z,14.22
2019-04-11T17:53:26.486Z,14.17
2019-04-11T17:58:27.915Z,14.29
2019-04-11T18:03:29.476Z,14.19
2019-04-11T18:08:30.835Z,14.11
2019-04-11T18:13:32.204Z,14.23
2019-04-11T18:18:35.161Z,14.25
2019-04-11T18:23:35.994Z,13.99
2019-04-11T18:28:36.290Z,13.98
2019-04-11T18:33:40.586Z,13.92
2019-04-11T18:38:42.074Z,13.97
2019-04-11T18:43:47.091Z,13.69
2019-04-11T18:48:48.673Z,13.46
2019-04-11T18:53:50.045Z,13.61
2019-04-11T18:58:51.461Z,13.34
2019-04-11T19:03:53.839Z,13.25
2019-04-11T19:09:03.758Z,13.16
2019-04-11T19:14:05.271Z,12.91
2019-04-11T19:19:07.771Z,12.88
2019-04-11T19:24:13.136Z,12.99
2019-04-11T19:29:18.944Z,13.07
2019-04-11T19:34:20.355Z,12.80
2019-04-11T19:39:25.876Z,12.86
2019-04-11T19:44:28.060Z,12.93
2019-04-11T19:49:29.663Z,12.81
2019-04-11T19:54:32.784Z,12.76
2019-04-11T19:59:32.204Z,12.36
2019-04-11T20:04:36.540Z,12.45
2019-04-11T20:09:47.426Z,12.66
2019-04-11T20:14:49.651Z,12.29
2019-04-11T20:20:01.146Z,12.29
2019-04-11T20:24:57.076Z,12.17
2019-04-11T20:30:03.476Z,12.15
2019-04-11T20:35:09.421Z,12.31
2019-04-11T20:40:07.681Z,12.33
2019-04-11T20:45:12.020Z,12.02
2019-04-11T20:50:19.380Z,11.61
2019-04-11T20:55:26.466Z,11.89
2019-04-11T21:00:27.852Z,11.84
2019-04-11T21:05:30.922Z,12.00
2019-04-11T21:10:31.889Z,12.06
2019-04-11T21:15:33.850Z,11.72
2019-04-11T21:20:35.215Z,11.89
2019-04-11T21:25:37.203Z,11.73
2019-04-11T21:30:38.578Z,11.63
2019-04-11T21:35:39.920Z,11.67
2019-04-11T21:40:41.273Z,11.66
2019-04-11T21:45:42.661Z,11.73
2019-04-11T21:50:44.001Z,11.66
2019-04-11T21:55:47.848Z,11.66
2019-04-11T22:00:46.753Z,11.66
2019-04-11T22:05:59.601Z,11.37
2019-04-11T22:10:57.834Z,11.41
2019-04-11T22:15:59.881Z,11.53
2019-04-11T22:21:01.211Z,11.53
2019-04-11T22:26:02.623Z,11.37
2019-04-11T22:31:03.962Z,11.52
2019-04-11T22:36:05.328Z,11.60
2019-04-11T22:41:06.773Z,11.52
2019-04-11T22:46:12.010Z,11.38
2019-04-11T22:51:11.276Z,11.35
2019-04-11T22:56:12.397Z,11.31
2019-04-11T23:01:14.001Z,11.47
2019-04-11T23:06:14.880Z,11.44
2019-04-11T23:11:15.898Z,11.43
2019-04-11T23:16:17.237Z,11.54
2019-04-11T23:21:18.673Z,11.43
2019-04-11T23:26:20.869Z,11.36
2019-04-11T23:31:22.240Z,11.25
2019-04-11T23:36:23.615Z,11.20
2019-04-11T23:41:25.014Z,11.19
2019-04-11T23:46:26.441Z,11.12
2019-04-11T23:51:27.837Z,11.00
2019-04-11T23:56:30.580Z,11.05
